Shawbury, United Kingdom

6:12 AM GMT on December 11, 2016 (GMT +0000)
Shawbury Air Base | | Change Station

Elev 249 ft 52.79 °N, 2.66 °W | Updated 22 minutes ago

Mostly Cloudy
Mostly Cloudy
39 °F
Feels Like 33 °F
N
9
Wind Variable Wind from WSW

Today
High -- | Low -- °F
--% Chance of Precip.
Yesterday
High -- | Low -- °F
Precip. -- in
Pressure 30.18 in
Visibility 6.2 miles
Clouds Mostly Cloudy 4600 ft
Windchill 33 °F
Dew Point 37 °F
Humidity 93%
Rainfall 0.00 in
Snow Depth Not available.
8:13 AM 3:54 PM
Waxing Gibbous, 89% visible
METAR EGOS 110550Z AUTO 25008KT 9999 BKN046/// 04/03 Q1022
Pressure 30.18 in
Visibility 6.2 miles
Clouds Mostly Cloudy 4600 ft
Windchill 33 °F
Dew Point 37 °F
Humidity 93%
Rainfall 0.00 in
Snow Depth Not available.
8:13 AM 3:54 PM
Waxing Gibbous, 89% visible
METAR EGOS 110550Z AUTO 25008KT 9999 BKN046/// 04/03 Q1022

10-Day Weather Forecast

×

Almanac

Astronomy

Dec. 11, 2016 Rise Set
Actual Time
Civil Twilight
Nautical Twilight
Astronomical Twilight
Moon
Length of Visible Light
Length of Day
Tomorrow will be .
, % of the Moon is Illuminated

Today's Extremes

Country Highs Country Lows

Community

WunderPhotos

Upload Photos

1,956,706 photos uploaded!

WunderBlog® & News

Nearby

Air Quality

  Air Quality AQ Index Pollutant
Not available.

Snow Depth

Station Depth Elevation

Earthquake Activity

City Distance Mag. Time & Date
Minimum magnitude displayed is 2.5.

Coastal Water Temperatures

Place Temperature

Stations

Nearby Weather Stations

Station Location Temp. Windchill Dew Point Humidity Wind Precip. Elev Updated Type